Darstellungsparameter: Aktuell verwendete Einstellungen:
Skalierung der Graphiken ... ?
xyx+y,   Skalierungsfaktor:      Skalierung: Modus: x, Faktor: 1
Darstellungszeitraum ... ?
Vom - - bis: - -   Zeitraum: 03.02.2022 - 03.02.2022
Min/Max/Avg-Anzeige ... ?
Zeige MMA aktuell
Zeige MMA Monat
Zeige MMA alles
Zeige --A aktuell
Zeige --A Monat
Zeige --A alles
Keine MMA-Anzeige
MMA:
Average (ber die Originaldaten)
MMA-Basis: 03.02.2022 - 03.02.2022
Quicknavigation für Darstellung... ?
Tage:      1T, 2T, 3T, 5T -1T -2T -3T -5T +1T +2T +3T +5T
Wochen: 1W, 2W, 3W -1W -2W -3W +1W +2W +3W
Monate: 1M, 3M, 6M -1M -3M -6M +1M +3M +6M
Jahre:    1J, 3J, 5J, 10J -1J -3J -5J -10J +1J +3J +5J +10J
Nutze für die Darstellung ... ?
Originaldaten oder Mittelwerte auf ...
Stundenbasis Tagesbasis Wochenbasis
Monatsbasis Jahresbasis      Datenbasis: Original-Daten
Darstellen als:
Statistik (Auto) Statistik J:M      Darstellung:
Zur Graphik,    zurück zur Übersicht aller Sensoren.
 
Tabellarische Datenbersicht: ?
 
Sensor: Nr:Datum:Temp:Abs-Feuchte:Windchill:Wind:
Aussen-T/F 1 03-02-2022 00:00:00 7.4 C 7.48 g/m*3 7.4 C 1.6 km/h
2 03-02-2022 00:05:00 7.4 C 7.48 g/m*3 7.4 C 0 km/h
3 03-02-2022 00:10:00 7.4 C 7.48 g/m*3 7.4 C 0 km/h
4 03-02-2022 00:15:00 7.4 C 7.48 g/m*3 7.4 C 0 km/h
5 03-02-2022 00:20:00 7.4 C 7.48 g/m*3 7.4 C 0 km/h
6 03-02-2022 00:25:00 7.5 C 7.6 g/m*3 7.5 C 4.8 km/h
7 03-02-2022 00:30:00 7.6 C 7.57 g/m*3 7.6 C 0 km/h
8 03-02-2022 00:35:00 7.6 C 7.65 g/m*3 7.6 C 0 km/h
9 03-02-2022 00:40:00 7.5 C 7.6 g/m*3 7.5 C 0 km/h
10 03-02-2022 00:45:00 7.4 C 7.48 g/m*3 7.4 C 0 km/h
11 03-02-2022 00:50:00 7.4 C 7.48 g/m*3 7.4 C 0 km/h
12 03-02-2022 00:55:00 7.3 C 7.43 g/m*3 7.3 C 0 km/h
13 03-02-2022 01:00:00 7.2 C 7.38 g/m*3 7.2 C 0 km/h
14 03-02-2022 01:05:00 7.2 C 7.38 g/m*3 7.2 C 0 km/h
15 03-02-2022 01:10:00 7.2 C 7.38 g/m*3 7.2 C 0 km/h
16 03-02-2022 01:15:00 7.1 C 7.33 g/m*3 7.1 C 0 km/h
17 03-02-2022 01:20:00 7.2 C 7.38 g/m*3 7.2 C 3.2 km/h
18 03-02-2022 01:25:00 7.2 C 7.46 g/m*3 7.2 C 3.2 km/h
19 03-02-2022 01:30:00 7.3 C 7.51 g/m*3 7.3 C 3.2 km/h
20 03-02-2022 01:35:00 7.4 C 7.55 g/m*3 7.4 C 3.2 km/h
21 03-02-2022 01:40:00 7.4 C 7.55 g/m*3 7.4 C 0 km/h
22 03-02-2022 01:45:00 7.4 C 7.55 g/m*3 7.4 C 0 km/h
23 03-02-2022 01:50:00 7.4 C 7.55 g/m*3 7.4 C 3.2 km/h
24 03-02-2022 01:55:00 7.4 C 7.55 g/m*3 7.4 C 1.6 km/h
25 03-02-2022 02:00:00 7.4 C 7.55 g/m*3 7.4 C 3.2 km/h
Sensor: Nr:Datum:Temp:Abs-Feuchte:Windchill:Wind:
Aussen-T/F 26 03-02-2022 02:05:00 7.4 C 7.55 g/m*3 7.4 C 1.6 km/h
27 03-02-2022 02:10:00 7.5 C 7.6 g/m*3 7.5 C 1.6 km/h
28 03-02-2022 02:15:00 7.5 C 7.6 g/m*3 7.5 C 0 km/h
29 03-02-2022 02:20:00 7.6 C 7.73 g/m*3 6.6 C 6.4 km/h
30 03-02-2022 02:25:00 7.6 C 7.73 g/m*3 6.6 C 6.4 km/h
31 03-02-2022 02:30:00 7.7 C 7.78 g/m*3 7.7 C 4.8 km/h
32 03-02-2022 02:35:00 7.7 C 7.78 g/m*3 7.7 C 4.8 km/h
33 03-02-2022 02:40:00 7.8 C 7.83 g/m*3 6.4 C 8.1 km/h
34 03-02-2022 02:45:00 7.8 C 7.83 g/m*3 7.8 C 1.6 km/h
35 03-02-2022 02:50:00 7.8 C 7.83 g/m*3 7.8 C 1.6 km/h
36 03-02-2022 02:55:00 7.8 C 7.83 g/m*3 7.8 C 1.6 km/h
37 03-02-2022 03:00:00 7.8 C 7.83 g/m*3 7.8 C 4.8 km/h
38 03-02-2022 03:05:00 7.8 C 7.83 g/m*3 7.8 C 3.2 km/h
39 03-02-2022 03:10:00 7.8 C 7.83 g/m*3 7.8 C 1.6 km/h
40 03-02-2022 03:15:00 7.8 C 7.83 g/m*3 7.8 C 1.6 km/h
41 03-02-2022 03:20:00 7.8 C 7.83 g/m*3 7.8 C 3.2 km/h
42 03-02-2022 03:25:00 7.8 C 7.83 g/m*3 7.8 C 1.6 km/h
43 03-02-2022 03:30:00 7.8 C 7.83 g/m*3 7.8 C 4.8 km/h
44 03-02-2022 03:35:00 7.8 C 7.83 g/m*3 7.8 C 4.8 km/h
45 03-02-2022 03:40:00 7.8 C 7.83 g/m*3 6.4 C 8.1 km/h
46 03-02-2022 03:45:00 7.9 C 7.89 g/m*3 6.52 C 8.1 km/h
47 03-02-2022 03:50:00 7.9 C 7.89 g/m*3 6.52 C 8.1 km/h
48 03-02-2022 03:55:00 7.9 C 7.89 g/m*3 6.94 C 6.4 km/h
49 03-02-2022 04:00:00 7.9 C 7.89 g/m*3 6.52 C 8.1 km/h
50 03-02-2022 04:05:00 7.8 C 7.83 g/m*3 6.06 C 9.7 km/h
Sensor: Nr:Datum:Temp:Abs-Feuchte:Windchill:Wind:
Aussen-T/F 51 03-02-2022 04:10:00 7.8 C 7.83 g/m*3 7.8 C 4.8 km/h
52 03-02-2022 04:15:00 7.6 C 7.65 g/m*3 6.6 C 6.4 km/h
53 03-02-2022 04:20:00 7.5 C 7.6 g/m*3 7.5 C 4.8 km/h
54 03-02-2022 04:25:00 7.4 C 7.55 g/m*3 7.4 C 3.2 km/h
55 03-02-2022 04:30:00 7.3 C 7.51 g/m*3 7.3 C 4.8 km/h
56 03-02-2022 04:35:00 7.3 C 7.51 g/m*3 6.25 C 6.4 km/h
57 03-02-2022 04:40:00 7.3 C 7.51 g/m*3 7.3 C 4.8 km/h
58 03-02-2022 04:45:00 7.3 C 7.51 g/m*3 5.81 C 8.1 km/h
59 03-02-2022 04:50:00 7.5 C 7.68 g/m*3 6.05 C 8.1 km/h
60 03-02-2022 04:55:00 7.7 C 7.78 g/m*3 6.28 C 8.1 km/h
61 03-02-2022 05:00:00 7.8 C 7.83 g/m*3 6.4 C 8.1 km/h
62 03-02-2022 05:05:00 7.8 C 7.83 g/m*3 6.4 C 8.1 km/h
63 03-02-2022 05:10:00 7.8 C 7.83 g/m*3 7.8 C 4.8 km/h
64 03-02-2022 05:15:00 7.8 C 7.83 g/m*3 7.8 C 0 km/h
65 03-02-2022 05:20:00 7.8 C 7.83 g/m*3 7.8 C 4.8 km/h
66 03-02-2022 05:25:00 7.8 C 7.83 g/m*3 7.8 C 4.8 km/h
67 03-02-2022 05:30:00 7.7 C 7.78 g/m*3 7.7 C 3.2 km/h
68 03-02-2022 05:35:00 7.7 C 7.7 g/m*3 7.7 C 3.2 km/h
69 03-02-2022 05:40:00 7.7 C 7.7 g/m*3 7.7 C 3.2 km/h
70 03-02-2022 05:45:00 7.7 C 7.7 g/m*3 7.7 C 1.6 km/h
71 03-02-2022 05:50:00 7.6 C 7.65 g/m*3 7.6 C 0 km/h
72 03-02-2022 05:55:00 7.6 C 7.65 g/m*3 7.6 C 0 km/h
73 03-02-2022 06:00:00 7.4 C 7.55 g/m*3 7.4 C 0 km/h
74 03-02-2022 06:05:00 7.3 C 7.51 g/m*3 7.3 C 1.6 km/h
75 03-02-2022 06:10:00 7.3 C 7.51 g/m*3 7.3 C 1.6 km/h
Sensor: Nr:Datum:Temp:Abs-Feuchte:Windchill:Wind:
Aussen-T/F 76 03-02-2022 06:15:00 7.2 C 7.46 g/m*3 7.2 C 0 km/h
77 03-02-2022 06:20:00 7.2 C 7.54 g/m*3 7.2 C 3.2 km/h
78 03-02-2022 06:25:00 7.3 C 7.58 g/m*3 6.25 C 6.4 km/h
79 03-02-2022 06:30:00 7.4 C 7.63 g/m*3 5.02 C 12.9 km/h
80 03-02-2022 06:35:00 7.5 C 7.68 g/m*3 7.5 C 0 km/h
81 03-02-2022 06:40:00 7.5 C 7.68 g/m*3 7.5 C 0 km/h
82 03-02-2022 06:45:00 7.5 C 7.68 g/m*3 7.5 C 0 km/h
83 03-02-2022 06:50:00 7.5 C 7.68 g/m*3 7.5 C 0 km/h
84 03-02-2022 06:55:00 7.4 C 7.63 g/m*3 7.4 C 0 km/h
85 03-02-2022 07:00:00 7.4 C 7.55 g/m*3 7.4 C 0 km/h
86 03-02-2022 07:05:00 7.4 C 7.55 g/m*3 7.4 C 1.6 km/h
87 03-02-2022 07:10:00 7.4 C 7.63 g/m*3 7.4 C 1.6 km/h
88 03-02-2022 07:15:00 7.4 C 7.63 g/m*3 7.4 C 1.6 km/h
89 03-02-2022 07:20:00 7.4 C 7.63 g/m*3 7.4 C 0 km/h
90 03-02-2022 07:25:00 7.4 C 7.63 g/m*3 6.37 C 6.4 km/h
91 03-02-2022 07:30:00 7.5 C 7.68 g/m*3 7.5 C 4.8 km/h
92 03-02-2022 07:35:00 7.6 C 7.73 g/m*3 6.6 C 6.4 km/h
93 03-02-2022 07:40:00 7.7 C 7.78 g/m*3 7.7 C 4.8 km/h
94 03-02-2022 07:45:00 7.7 C 7.78 g/m*3 5.65 C 11.3 km/h
95 03-02-2022 07:50:00 7.8 C 7.75 g/m*3 6.83 C 6.4 km/h
96 03-02-2022 07:55:00 7.8 C 7.83 g/m*3 6.4 C 8.1 km/h
97 03-02-2022 08:00:00 7.8 C 7.75 g/m*3 5.77 C 11.3 km/h
98 03-02-2022 08:05:00 7.8 C 7.75 g/m*3 6.83 C 6.4 km/h
99 03-02-2022 08:10:00 7.8 C 7.75 g/m*3 5.27 C 14.5 km/h
100 03-02-2022 08:15:00 7.9 C 7.8 g/m*3 5.39 C 14.5 km/h
Sensor: Nr:Datum:Temp:Abs-Feuchte:Windchill:Wind:
Aussen-T/F 101 03-02-2022 08:20:00 7.9 C 7.8 g/m*3 5.63 C 12.9 km/h
102 03-02-2022 08:25:00 8 C 7.77 g/m*3 6.3 C 9.7 km/h
103 03-02-2022 08:30:00 8.1 C 7.82 g/m*3 6.42 C 9.7 km/h
104 03-02-2022 08:35:00 8.1 C 7.82 g/m*3 6.13 C 11.3 km/h
105 03-02-2022 08:40:00 8.1 C 7.82 g/m*3 6.42 C 9.7 km/h
106 03-02-2022 08:45:00 8.1 C 7.82 g/m*3 6.13 C 11.3 km/h
107 03-02-2022 08:50:00 8.2 C 7.79 g/m*3 6.54 C 9.7 km/h
108 03-02-2022 08:55:00 8.2 C 7.79 g/m*3 7.29 C 6.4 km/h
109 03-02-2022 09:00:00 8.2 C 7.79 g/m*3 7.29 C 6.4 km/h
110 03-02-2022 09:05:00 8.2 C 7.79 g/m*3 6.54 C 9.7 km/h
111 03-02-2022 09:10:00 8.3 C 7.75 g/m*3 7.41 C 6.4 km/h
112 03-02-2022 09:15:00 8.3 C 7.75 g/m*3 8.3 C 4.8 km/h
113 03-02-2022 09:20:00 8.4 C 7.8 g/m*3 6.49 C 11.3 km/h
114 03-02-2022 09:25:00 8.4 C 7.8 g/m*3 6.78 C 9.7 km/h
115 03-02-2022 09:30:00 8.4 C 7.8 g/m*3 7.11 C 8.1 km/h
116 03-02-2022 09:35:00 8.4 C 7.8 g/m*3 8.4 C 3.2 km/h
117 03-02-2022 09:40:00 8.5 C 7.77 g/m*3 7.64 C 6.4 km/h
118 03-02-2022 09:45:00 8.5 C 7.77 g/m*3 7.64 C 6.4 km/h
119 03-02-2022 09:50:00 8.6 C 7.82 g/m*3 7.01 C 9.7 km/h
120 03-02-2022 09:55:00 8.6 C 7.82 g/m*3 7.75 C 6.4 km/h
121 03-02-2022 10:00:00 8.7 C 7.87 g/m*3 7.46 C 8.1 km/h
122 03-02-2022 10:05:00 8.7 C 7.78 g/m*3 7.46 C 8.1 km/h
123 03-02-2022 10:10:00 8.7 C 7.78 g/m*3 7.46 C 8.1 km/h
124 03-02-2022 10:15:00 8.7 C 7.78 g/m*3 8.7 C 4.8 km/h
125 03-02-2022 10:20:00 8.8 C 7.83 g/m*3 8.8 C 4.8 km/h
Sensor: Nr:Datum:Temp:Abs-Feuchte:Windchill:Wind:
Aussen-T/F 126 03-02-2022 10:25:00 8.8 C 7.83 g/m*3 7.25 C 9.7 km/h
127 03-02-2022 10:30:00 8.8 C 7.75 g/m*3 6.72 C 12.9 km/h
128 03-02-2022 10:35:00 8.8 C 7.75 g/m*3 8.8 C 4.8 km/h
129 03-02-2022 10:40:00 8.9 C 7.8 g/m*3 7.37 C 9.7 km/h
130 03-02-2022 10:45:00 8.9 C 7.71 g/m*3 7.69 C 8.1 km/h
131 03-02-2022 10:50:00 8.9 C 7.71 g/m*3 7.09 C 11.3 km/h
132 03-02-2022 10:55:00 8.9 C 7.71 g/m*3 8.1 C 6.4 km/h
133 03-02-2022 11:00:00 9 C 7.76 g/m*3 7.49 C 9.7 km/h
134 03-02-2022 11:05:00 9.1 C 7.81 g/m*3 8.33 C 6.4 km/h
135 03-02-2022 11:10:00 9.1 C 7.72 g/m*3 8.33 C 6.4 km/h
136 03-02-2022 11:15:00 9.2 C 7.77 g/m*3 7.73 C 9.7 km/h
137 03-02-2022 11:20:00 9.2 C 7.77 g/m*3 7.73 C 9.7 km/h
138 03-02-2022 11:25:00 9.1 C 7.72 g/m*3 7.33 C 11.3 km/h
139 03-02-2022 11:30:00 9.1 C 7.72 g/m*3 7.09 C 12.9 km/h
140 03-02-2022 11:35:00 9 C 7.76 g/m*3 7.81 C 8.1 km/h
141 03-02-2022 11:40:00 9 C 7.76 g/m*3 9 C 4.8 km/h
142 03-02-2022 11:45:00 8.9 C 7.71 g/m*3 7.69 C 8.1 km/h
143 03-02-2022 11:50:00 8.9 C 7.71 g/m*3 7.09 C 11.3 km/h
144 03-02-2022 11:55:00 8.8 C 7.75 g/m*3 6.72 C 12.9 km/h
145 03-02-2022 12:00:00 8.8 C 7.75 g/m*3 6.97 C 11.3 km/h
146 03-02-2022 12:05:00 8.8 C 7.75 g/m*3 7.58 C 8.1 km/h
147 03-02-2022 12:10:00 8.8 C 7.75 g/m*3 7.25 C 9.7 km/h
148 03-02-2022 12:15:00 8.8 C 7.75 g/m*3 7.98 C 6.4 km/h
149 03-02-2022 12:20:00 8.8 C 7.75 g/m*3 8.8 C 4.8 km/h
150 03-02-2022 12:25:00 8.8 C 7.66 g/m*3 6.97 C 11.3 km/h
Sensor: Nr:Datum:Temp:Abs-Feuchte:Windchill:Wind:
Aussen-T/F 151 03-02-2022 12:30:00 8.8 C 7.66 g/m*3 7.25 C 9.7 km/h
152 03-02-2022 12:35:00 8.8 C 7.66 g/m*3 8.8 C 4.8 km/h
153 03-02-2022 12:40:00 8.8 C 7.66 g/m*3 7.98 C 6.4 km/h
154 03-02-2022 12:45:00 8.8 C 7.57 g/m*3 7.98 C 6.4 km/h
155 03-02-2022 12:50:00 8.8 C 7.57 g/m*3 8.8 C 4.8 km/h
156 03-02-2022 12:55:00 8.8 C 7.49 g/m*3 7.58 C 8.1 km/h
157 03-02-2022 13:00:00 8.9 C 7.62 g/m*3 8.9 C 4.8 km/h
158 03-02-2022 13:05:00 8.8 C 7.49 g/m*3 7.58 C 8.1 km/h
159 03-02-2022 13:10:00 8.7 C 7.44 g/m*3 6.85 C 11.3 km/h
160 03-02-2022 13:15:00 8.7 C 7.44 g/m*3 7.87 C 6.4 km/h
161 03-02-2022 13:20:00 8.6 C 7.39 g/m*3 7.34 C 8.1 km/h
162 03-02-2022 13:25:00 8.5 C 7.43 g/m*3 8.5 C 4.8 km/h
163 03-02-2022 13:30:00 8.4 C 7.38 g/m*3 6.78 C 9.7 km/h
164 03-02-2022 13:35:00 8.4 C 7.38 g/m*3 6.24 C 12.9 km/h
165 03-02-2022 13:40:00 8.4 C 7.38 g/m*3 6.78 C 9.7 km/h
166 03-02-2022 13:45:00 8.4 C 7.38 g/m*3 6.78 C 9.7 km/h
167 03-02-2022 13:50:00 8.3 C 7.25 g/m*3 6.37 C 11.3 km/h
168 03-02-2022 13:55:00 8.3 C 7.25 g/m*3 6.37 C 11.3 km/h
169 03-02-2022 14:00:00 8.2 C 7.29 g/m*3 6.25 C 11.3 km/h
170 03-02-2022 14:05:00 8.2 C 7.29 g/m*3 6.54 C 9.7 km/h
171 03-02-2022 14:10:00 8.1 C 7.24 g/m*3 6.42 C 9.7 km/h
172 03-02-2022 14:15:00 8.1 C 7.32 g/m*3 7.17 C 6.4 km/h
173 03-02-2022 14:20:00 8.1 C 7.32 g/m*3 5.87 C 12.9 km/h
174 03-02-2022 14:25:00 8 C 7.28 g/m*3 6.01 C 11.3 km/h
175 03-02-2022 14:30:00 7.9 C 7.31 g/m*3 5.89 C 11.3 km/h
Sensor: Nr:Datum:Temp:Abs-Feuchte:Windchill:Wind:
Aussen-T/F 176 03-02-2022 14:35:00 7.9 C 7.23 g/m*3 6.52 C 8.1 km/h
177 03-02-2022 14:40:00 7.8 C 7.18 g/m*3 6.06 C 9.7 km/h
178 03-02-2022 14:45:00 7.8 C 7.18 g/m*3 5.51 C 12.9 km/h
179 03-02-2022 14:50:00 7.8 C 7.1 g/m*3 6.06 C 9.7 km/h
180 03-02-2022 14:55:00 7.8 C 7.1 g/m*3 6.06 C 9.7 km/h
181 03-02-2022 15:00:00 7.8 C 7.1 g/m*3 5.27 C 14.5 km/h
182 03-02-2022 15:05:00 7.8 C 7.1 g/m*3 5.51 C 12.9 km/h
183 03-02-2022 15:10:00 7.7 C 7.05 g/m*3 6.28 C 8.1 km/h
184 03-02-2022 15:15:00 7.7 C 7.05 g/m*3 5.65 C 11.3 km/h
185 03-02-2022 15:20:00 7.7 C 7.05 g/m*3 5.65 C 11.3 km/h
186 03-02-2022 15:25:00 7.7 C 7.05 g/m*3 5.94 C 9.7 km/h
187 03-02-2022 15:30:00 7.7 C 7.05 g/m*3 5.65 C 11.3 km/h
188 03-02-2022 15:35:00 7.7 C 7.05 g/m*3 6.28 C 8.1 km/h
189 03-02-2022 15:40:00 7.7 C 7.05 g/m*3 6.28 C 8.1 km/h
190 03-02-2022 15:45:00 7.7 C 7.05 g/m*3 5.65 C 11.3 km/h
191 03-02-2022 15:50:00 7.7 C 7.05 g/m*3 5.94 C 9.7 km/h
192 03-02-2022 15:55:00 7.7 C 7.05 g/m*3 5.94 C 9.7 km/h
193 03-02-2022 16:00:00 7.6 C 6.93 g/m*3 5.53 C 11.3 km/h
194 03-02-2022 16:05:00 7.6 C 6.93 g/m*3 7.6 C 4.8 km/h
195 03-02-2022 16:10:00 7.6 C 6.93 g/m*3 5.82 C 9.7 km/h
196 03-02-2022 16:15:00 7.6 C 6.85 g/m*3 5.82 C 9.7 km/h
197 03-02-2022 16:20:00 7.6 C 6.85 g/m*3 5.53 C 11.3 km/h
198 03-02-2022 16:25:00 7.6 C 6.85 g/m*3 6.6 C 6.4 km/h
199 03-02-2022 16:30:00 7.6 C 6.77 g/m*3 5.53 C 11.3 km/h
200 03-02-2022 16:35:00 7.6 C 6.77 g/m*3 5.82 C 9.7 km/h
Sensor: Nr:Datum:Temp:Abs-Feuchte:Windchill:Wind:
Aussen-T/F 201 03-02-2022 16:40:00 7.6 C 6.77 g/m*3 6.16 C 8.1 km/h
202 03-02-2022 16:45:00 7.6 C 6.77 g/m*3 5.82 C 9.7 km/h
203 03-02-2022 16:50:00 7.5 C 6.72 g/m*3 5.7 C 9.7 km/h
204 03-02-2022 16:55:00 7.5 C 6.72 g/m*3 7.5 C 4.8 km/h
205 03-02-2022 17:00:00 7.5 C 6.72 g/m*3 6.05 C 8.1 km/h
206 03-02-2022 17:05:00 7.4 C 6.68 g/m*3 6.37 C 6.4 km/h
207 03-02-2022 17:10:00 7.4 C 6.76 g/m*3 5.93 C 8.1 km/h
208 03-02-2022 17:15:00 7.4 C 6.68 g/m*3 5.58 C 9.7 km/h
209 03-02-2022 17:20:00 7.3 C 6.72 g/m*3 5.47 C 9.7 km/h
210 03-02-2022 17:25:00 7.4 C 6.68 g/m*3 5.93 C 8.1 km/h
211 03-02-2022 17:30:00 7.3 C 6.72 g/m*3 5.47 C 9.7 km/h
212 03-02-2022 17:35:00 7.3 C 6.72 g/m*3 5.47 C 9.7 km/h
213 03-02-2022 17:40:00 7.3 C 6.72 g/m*3 5.47 C 9.7 km/h
214 03-02-2022 17:45:00 7.3 C 6.79 g/m*3 5.47 C 9.7 km/h
215 03-02-2022 17:50:00 7.3 C 6.79 g/m*3 5.16 C 11.3 km/h
216 03-02-2022 17:55:00 7.2 C 6.75 g/m*3 5.04 C 11.3 km/h
217 03-02-2022 18:00:00 7.2 C 6.75 g/m*3 5.69 C 8.1 km/h
218 03-02-2022 18:05:00 7.2 C 6.75 g/m*3 7.2 C 4.8 km/h
219 03-02-2022 18:10:00 7.2 C 6.75 g/m*3 5.69 C 8.1 km/h
220 03-02-2022 18:15:00 7.1 C 6.71 g/m*3 7.1 C 3.2 km/h
221 03-02-2022 18:20:00 7.1 C 6.71 g/m*3 7.1 C 4.8 km/h
222 03-02-2022 18:25:00 7.1 C 6.71 g/m*3 5.58 C 8.1 km/h
223 03-02-2022 18:30:00 7.1 C 6.79 g/m*3 5.58 C 8.1 km/h
224 03-02-2022 18:35:00 7.1 C 6.79 g/m*3 7.1 C 4.8 km/h
225 03-02-2022 18:40:00 7.1 C 6.71 g/m*3 5.58 C 8.1 km/h
Sensor: Nr:Datum:Temp:Abs-Feuchte:Windchill:Wind:
Aussen-T/F 226 03-02-2022 18:45:00 7 C 6.66 g/m*3 7 C 3.2 km/h
227 03-02-2022 18:50:00 7 C 6.66 g/m*3 7 C 3.2 km/h
228 03-02-2022 18:55:00 6.9 C 6.62 g/m*3 6.9 C 4.8 km/h
229 03-02-2022 19:00:00 6.9 C 6.62 g/m*3 5.34 C 8.1 km/h
230 03-02-2022 19:05:00 6.8 C 6.58 g/m*3 4.56 C 11.3 km/h
231 03-02-2022 19:10:00 6.8 C 6.58 g/m*3 4.29 C 12.9 km/h
232 03-02-2022 19:15:00 6.8 C 6.65 g/m*3 4.87 C 9.7 km/h
233 03-02-2022 19:20:00 6.7 C 6.61 g/m*3 4.44 C 11.3 km/h
234 03-02-2022 19:25:00 6.7 C 6.61 g/m*3 4.75 C 9.7 km/h
235 03-02-2022 19:30:00 6.6 C 6.57 g/m*3 4.63 C 9.7 km/h
236 03-02-2022 19:35:00 6.5 C 6.6 g/m*3 4.87 C 8.1 km/h
237 03-02-2022 19:40:00 6.5 C 6.6 g/m*3 3.23 C 17.7 km/h
238 03-02-2022 19:45:00 6.6 C 6.57 g/m*3 3.17 C 19.3 km/h
239 03-02-2022 19:50:00 6.7 C 6.61 g/m*3 4.17 C 12.9 km/h
240 03-02-2022 19:55:00 6.8 C 6.65 g/m*3 4.04 C 14.5 km/h
241 03-02-2022 20:00:00 6.8 C 6.65 g/m*3 4.87 C 9.7 km/h
242 03-02-2022 20:05:00 6.8 C 6.65 g/m*3 3.61 C 17.7 km/h
243 03-02-2022 20:10:00 6.8 C 6.65 g/m*3 4.29 C 12.9 km/h
244 03-02-2022 20:15:00 6.8 C 6.65 g/m*3 3.61 C 17.7 km/h
245 03-02-2022 20:20:00 6.8 C 6.58 g/m*3 3.82 C 16.1 km/h
246 03-02-2022 20:25:00 6.8 C 6.65 g/m*3 4.56 C 11.3 km/h
247 03-02-2022 20:30:00 6.8 C 6.65 g/m*3 4.04 C 14.5 km/h
248 03-02-2022 20:35:00 6.8 C 6.65 g/m*3 4.29 C 12.9 km/h
249 03-02-2022 20:40:00 6.8 C 6.65 g/m*3 4.29 C 12.9 km/h
250 03-02-2022 20:45:00 6.8 C 6.65 g/m*3 5.22 C 8.1 km/h
Sensor: Nr:Datum:Temp:Abs-Feuchte:Windchill:Wind:
Aussen-T/F 251 03-02-2022 20:50:00 6.8 C 6.65 g/m*3 4.56 C 11.3 km/h
252 03-02-2022 20:55:00 6.8 C 6.65 g/m*3 4.29 C 12.9 km/h
253 03-02-2022 21:00:00 6.8 C 6.65 g/m*3 5.67 C 6.4 km/h
254 03-02-2022 21:05:00 6.8 C 6.65 g/m*3 4.56 C 11.3 km/h
255 03-02-2022 21:10:00 6.8 C 6.65 g/m*3 4.87 C 9.7 km/h
256 03-02-2022 21:15:00 6.8 C 6.65 g/m*3 4.56 C 11.3 km/h
257 03-02-2022 21:20:00 6.8 C 6.65 g/m*3 4.56 C 11.3 km/h
258 03-02-2022 21:25:00 6.8 C 6.65 g/m*3 4.29 C 12.9 km/h
259 03-02-2022 21:30:00 6.8 C 6.65 g/m*3 4.29 C 12.9 km/h
260 03-02-2022 21:35:00 6.8 C 6.65 g/m*3 4.87 C 9.7 km/h
261 03-02-2022 21:40:00 6.8 C 6.65 g/m*3 3.82 C 16.1 km/h
262 03-02-2022 21:45:00 6.8 C 6.65 g/m*3 3.82 C 16.1 km/h
263 03-02-2022 21:50:00 6.8 C 6.65 g/m*3 4.29 C 12.9 km/h
264 03-02-2022 21:55:00 6.8 C 6.65 g/m*3 4.56 C 11.3 km/h
265 03-02-2022 22:00:00 6.8 C 6.65 g/m*3 4.29 C 12.9 km/h
266 03-02-2022 22:05:00 6.8 C 6.65 g/m*3 4.87 C 9.7 km/h
267 03-02-2022 22:10:00 6.7 C 6.61 g/m*3 4.17 C 12.9 km/h
268 03-02-2022 22:15:00 6.7 C 6.69 g/m*3 4.75 C 9.7 km/h
269 03-02-2022 22:20:00 6.7 C 6.69 g/m*3 4.17 C 12.9 km/h
270 03-02-2022 22:25:00 6.7 C 6.69 g/m*3 4.17 C 12.9 km/h
271 03-02-2022 22:30:00 6.7 C 6.69 g/m*3 4.17 C 12.9 km/h
272 03-02-2022 22:35:00 6.7 C 6.69 g/m*3 4.17 C 12.9 km/h
273 03-02-2022 22:40:00 6.7 C 6.69 g/m*3 3.69 C 16.1 km/h
274 03-02-2022 22:45:00 6.7 C 6.69 g/m*3 3.69 C 16.1 km/h
275 03-02-2022 22:50:00 6.7 C 6.69 g/m*3 3.69 C 16.1 km/h
Sensor: Nr:Datum:Temp:Abs-Feuchte:Windchill:Wind:
Aussen-T/F 276 03-02-2022 22:55:00 6.7 C 6.69 g/m*3 4.44 C 11.3 km/h
277 03-02-2022 23:00:00 6.7 C 6.69 g/m*3 4.44 C 11.3 km/h
278 03-02-2022 23:05:00 6.7 C 6.69 g/m*3 5.11 C 8.1 km/h
279 03-02-2022 23:10:00 6.7 C 6.69 g/m*3 4.75 C 9.7 km/h
280 03-02-2022 23:15:00 6.6 C 6.64 g/m*3 4.32 C 11.3 km/h
281 03-02-2022 23:20:00 6.6 C 6.64 g/m*3 4.63 C 9.7 km/h
282 03-02-2022 23:25:00 6.6 C 6.64 g/m*3 4.32 C 11.3 km/h
283 03-02-2022 23:30:00 6.6 C 6.72 g/m*3 4.32 C 11.3 km/h
284 03-02-2022 23:35:00 6.6 C 6.72 g/m*3 4.32 C 11.3 km/h
285 03-02-2022 23:40:00 6.6 C 6.72 g/m*3 4.99 C 8.1 km/h
286 03-02-2022 23:45:00 6.6 C 6.72 g/m*3 4.32 C 11.3 km/h
287 03-02-2022 23:50:00 6.5 C 6.67 g/m*3 4.87 C 8.1 km/h
288 03-02-2022 23:55:00 6.5 C 6.67 g/m*3 4.2 C 11.3 km/h

Legende:
   Min
   Max


Maximal/Minimal-Werte vom 03.02.2022 - 03.02.2022

Sensor Min Max Avg
Temp
(Aussen-T/F)
6.5 °C
03-02-2022  19:35:00
9.2 °C
03-02-2022  11:15:00
7.64 °C
Abs-Feuchte
(Aussen-T/F)
6.57 g/m*3
03-02-2022  19:30:00
7.89 g/m*3
03-02-2022  03:45:00
7.28 g/m*3
Windchill
(Aussen-T/F)
3.17 C
03-02-2022  19:45:00
9 C
03-02-2022  11:40:00
6.39 C

Die Daten stammen von einer Davis Vantage Pro 2 Wetter-Station und werden unter Linux mit der Software wview2wettercgi und aufbereitet. Alle Angaben erfolgen ohne Gewähr für ihre Vollständigkeit oder Richtigkeit.
Kontakt: Rainer Krienke krienke@uni-koblenz.de . Meine Webseiten an der Uni Koblenz oder privat.
Version: $Revision: 0.78 $